sensor_id;sensor_type;location;lat;lon;timestamp;P1;durP1;ratioP1;P2;durP2;ratioP2
20423;SDS011;10371;49.042;8.002;2023-03-12T00:00:51;3.70;;;2.37;;
20423;SDS011;10371;49.042;8.002;2023-03-12T00:01:51;3.27;;;2.40;;
20423;SDS011;10371;49.042;8.002;2023-03-12T00:02:52;3.40;;;2.10;;
20423;SDS011;10371;49.042;8.002;2023-03-12T00:03:52;3.30;;;2.30;;
20423;SDS011;10371;49.042;8.002;2023-03-12T00:04:55;4.33;;;2.10;;
20423;SDS011;10371;49.042;8.002;2023-03-12T00:05:56;4.90;;;2.30;;
20423;SDS011;10371;49.042;8.002;2023-03-12T00:06:56;3.80;;;2.37;;
20423;SDS011;10371;49.042;8.002;2023-03-12T00:07:56;3.60;;;2.70;;
20423;SDS011;10371;49.042;8.002;2023-03-12T00:08:58;3.00;;;2.70;;
20423;SDS011;10371;49.042;8.002;2023-03-12T00:10:01;3.80;;;3.10;;
20423;SDS011;10371;49.042;8.002;2023-03-12T00:11:10;4.47;;;2.60;;
20423;SDS011;10371;49.042;8.002;2023-03-12T00:12:12;4.10;;;2.50;;
20423;SDS011;10371;49.042;8.002;2023-03-12T00:13:12;3.50;;;2.70;;
20423;SDS011;10371;49.042;8.002;2023-03-12T00:14:12;3.17;;;2.40;;
20423;SDS011;10371;49.042;8.002;2023-03-12T00:15:13;4.70;;;2.13;;
20423;SDS011;10371;49.042;8.002;2023-03-12T00:16:14;2.33;;;2.13;;
20423;SDS011;10371;49.042;8.002;2023-03-12T00:17:14;3.50;;;2.30;;
20423;SDS011;10371;49.042;8.002;2023-03-12T00:18:15;3.20;;;2.10;;
20423;SDS011;10371;49.042;8.002;2023-03-12T00:19:15;3.53;;;2.07;;
20423;SDS011;10371;49.042;8.002;2023-03-12T00:20:16;2.80;;;2.20;;
20423;SDS011;10371;49.042;8.002;2023-03-12T00:21:17;2.93;;;2.10;;
20423;SDS011;10371;49.042;8.002;2023-03-12T00:22:19;3.30;;;2.17;;
20423;SDS011;10371;49.042;8.002;2023-03-12T00:23:24;3.50;;;2.17;;
20423;SDS011;10371;49.042;8.002;2023-03-12T00:24:24;3.10;;;2.20;;
20423;SDS011;10371;49.042;8.002;2023-03-12T00:25:25;4.67;;;2.00;;
20423;SDS011;10371;49.042;8.002;2023-03-12T00:26:25;5.07;;;2.47;;
20423;SDS011;10371;49.042;8.002;2023-03-12T00:27:26;4.50;;;2.27;;
20423;SDS011;10371;49.042;8.002;2023-03-12T00:28:26;5.50;;;2.30;;
20423;SDS011;10371;49.042;8.002;2023-03-12T00:29:27;3.63;;;2.20;;
20423;SDS011;10371;49.042;8.002;2023-03-12T00:30:27;3.73;;;2.60;;
20423;SDS011;10371;49.042;8.002;2023-03-12T00:31:29;3.30;;;2.10;;
20423;SDS011;10371;49.042;8.002;2023-03-12T00:32:34;4.07;;;2.23;;
20423;SDS011;10371;49.042;8.002;2023-03-12T00:33:34;3.43;;;2.23;;
20423;SDS011;10371;49.042;8.002;2023-03-12T00:34:35;2.67;;;2.13;;
20423;SDS011;10371;49.042;8.002;2023-03-12T00:35:38;2.87;;;1.90;;
20423;SDS011;10371;49.042;8.002;2023-03-12T00:36:38;2.40;;;2.00;;
20423;SDS011;10371;49.042;8.002;2023-03-12T00:37:40;3.30;;;2.17;;
20423;SDS011;10371;49.042;8.002;2023-03-12T00:38:40;3.23;;;2.00;;
20423;SDS011;10371;49.042;8.002;2023-03-12T00:39:40;2.30;;;1.97;;
20423;SDS011;10371;49.042;8.002;2023-03-12T00:40:41;2.33;;;2.13;;
20423;SDS011;10371;49.042;8.002;2023-03-12T00:41:41;3.20;;;2.03;;
20423;SDS011;10371;49.042;8.002;2023-03-12T00:42:41;2.57;;;2.20;;
20423;SDS011;10371;49.042;8.002;2023-03-12T00:43:41;3.30;;;2.40;;
20423;SDS011;10371;49.042;8.002;2023-03-12T00:44:42;2.93;;;2.37;;
20423;SDS011;10371;49.042;8.002;2023-03-12T00:45:43;2.80;;;2.50;;
20423;SDS011;10371;49.042;8.002;2023-03-12T00:46:44;3.90;;;2.80;;
20423;SDS011;10371;49.042;8.002;2023-03-12T00:47:44;3.63;;;2.70;;
20423;SDS011;10371;49.042;8.002;2023-03-12T00:48:44;3.13;;;2.83;;
20423;SDS011;10371;49.042;8.002;2023-03-12T00:49:45;3.00;;;2.70;;
20423;SDS011;10371;49.042;8.002;2023-03-12T00:50:45;3.27;;;2.80;;
20423;SDS011;10371;49.042;8.002;2023-03-12T00:51:45;4.90;;;3.00;;
20423;SDS011;10371;49.042;8.002;2023-03-12T00:52:46;3.03;;;2.73;;
20423;SDS011;10371;49.042;8.002;2023-03-12T00:53:46;4.17;;;3.30;;
20423;SDS011;10371;49.042;8.002;2023-03-12T00:54:47;4.23;;;3.13;;
20423;SDS011;10371;49.042;8.002;2023-03-12T00:55:47;3.57;;;2.83;;
20423;SDS011;10371;49.042;8.002;2023-03-12T00:56:47;2.47;;;2.27;;
20423;SDS011;10371;49.042;8.002;2023-03-12T00:57:48;2.73;;;2.40;;
20423;SDS011;10371;49.042;8.002;2023-03-12T00:58:48;4.90;;;2.47;;
20423;SDS011;10371;49.042;8.002;2023-03-12T00:59:48;3.10;;;2.17;;
20423;SDS011;10371;49.042;8.002;2023-03-12T01:00:49;3.87;;;2.00;;
20423;SDS011;10371;49.042;8.002;2023-03-12T01:01:49;3.00;;;2.00;;
20423;SDS011;10371;49.042;8.002;2023-03-12T01:02:50;3.63;;;2.17;;
20423;SDS011;10371;49.042;8.002;2023-03-12T01:03:50;2.20;;;2.00;;
20423;SDS011;10371;49.042;8.002;2023-03-12T01:04:53;2.27;;;1.87;;
20423;SDS011;10371;49.042;8.002;2023-03-12T01:05:53;3.97;;;2.50;;
20423;SDS011;10371;49.042;8.002;2023-03-12T01:06:54;3.23;;;2.30;;
20423;SDS011;10371;49.042;8.002;2023-03-12T01:07:54;3.20;;;2.30;;
20423;SDS011;10371;49.042;8.002;2023-03-12T01:08:54;5.37;;;3.30;;
20423;SDS011;10371;49.042;8.002;2023-03-12T01:09:55;5.07;;;3.73;;
20423;SDS011;10371;49.042;8.002;2023-03-12T01:10:55;5.07;;;4.13;;
20423;SDS011;10371;49.042;8.002;2023-03-12T01:11:55;5.33;;;4.83;;
20423;SDS011;10371;49.042;8.002;2023-03-12T01:12:57;5.07;;;3.63;;
20423;SDS011;10371;49.042;8.002;2023-03-12T01:14:01;4.93;;;3.87;;
20423;SDS011;10371;49.042;8.002;2023-03-12T01:15:03;4.50;;;3.57;;
20423;SDS011;10371;49.042;8.002;2023-03-12T01:16:03;4.40;;;3.77;;
20423;SDS011;10371;49.042;8.002;2023-03-12T01:17:04;5.50;;;3.40;;
20423;SDS011;10371;49.042;8.002;2023-03-12T01:18:04;5.47;;;3.30;;
20423;SDS011;10371;49.042;8.002;2023-03-12T01:19:05;4.63;;;3.00;;
20423;SDS011;10371;49.042;8.002;2023-03-12T01:20:05;4.00;;;2.73;;
20423;SDS011;10371;49.042;8.002;2023-03-12T01:21:07;3.47;;;2.77;;
20423;SDS011;10371;49.042;8.002;2023-03-12T01:22:07;3.00;;;2.60;;
20423;SDS011;10371;49.042;8.002;2023-03-12T01:23:08;3.10;;;2.80;;
20423;SDS011;10371;49.042;8.002;2023-03-12T01:24:08;4.10;;;2.87;;
20423;SDS011;10371;49.042;8.002;2023-03-12T01:25:09;3.00;;;2.70;;
20423;SDS011;10371;49.042;8.002;2023-03-12T01:26:10;5.97;;;3.03;;
20423;SDS011;10371;49.042;8.002;2023-03-12T01:27:10;4.97;;;2.97;;
20423;SDS011;10371;49.042;8.002;2023-03-12T01:28:10;3.10;;;2.67;;
20423;SDS011;10371;49.042;8.002;2023-03-12T01:29:10;2.90;;;2.60;;
20423;SDS011;10371;49.042;8.002;2023-03-12T01:30:11;4.50;;;2.93;;
20423;SDS011;10371;49.042;8.002;2023-03-12T01:31:13;3.47;;;2.60;;
20423;SDS011;10371;49.042;8.002;2023-03-12T01:32:14;3.13;;;2.43;;
20423;SDS011;10371;49.042;8.002;2023-03-12T01:33:16;3.20;;;2.57;;
20423;SDS011;10371;49.042;8.002;2023-03-12T01:34:17;5.50;;;3.00;;
20423;SDS011;10371;49.042;8.002;2023-03-12T01:35:18;3.13;;;2.70;;
20423;SDS011;10371;49.042;8.002;2023-03-12T01:36:22;3.53;;;2.70;;
20423;SDS011;10371;49.042;8.002;2023-03-12T01:37:24;5.70;;;3.33;;
20423;SDS011;10371;49.042;8.002;2023-03-12T01:38:26;4.40;;;3.10;;
20423;SDS011;10371;49.042;8.002;2023-03-12T01:39:26;4.53;;;3.03;;
20423;SDS011;10371;49.042;8.002;2023-03-12T01:40:26;4.50;;;3.00;;
20423;SDS011;10371;49.042;8.002;2023-03-12T01:41:29;3.13;;;2.80;;
20423;SDS011;10371;49.042;8.002;2023-03-12T01:42:33;5.67;;;3.33;;
20423;SDS011;10371;49.042;8.002;2023-03-12T01:43:34;3.90;;;3.03;;
20423;SDS011;10371;49.042;8.002;2023-03-12T01:46:54;4.17;;;3.33;;
20423;SDS011;10371;49.042;8.002;2023-03-12T01:47:54;3.80;;;3.40;;
20423;SDS011;10371;49.042;8.002;2023-03-12T01:50:01;7.27;;;4.07;;
20423;SDS011;10371;49.042;8.002;2023-03-12T01:51:02;6.87;;;4.67;;
20423;SDS011;10371;49.042;8.002;2023-03-12T01:52:04;5.63;;;5.00;;
20423;SDS011;10371;49.042;8.002;2023-03-12T01:53:07;8.40;;;6.27;;
20423;SDS011;10371;49.042;8.002;2023-03-12T01:54:10;9.07;;;7.27;;
20423;SDS011;10371;49.042;8.002;2023-03-12T01:55:14;10.47;;;6.73;;
20423;SDS011;10371;49.042;8.002;2023-03-12T01:56:16;9.87;;;6.90;;
20423;SDS011;10371;49.042;8.002;2023-03-12T01:57:20;6.97;;;5.77;;
20423;SDS011;10371;49.042;8.002;2023-03-12T01:58:25;8.03;;;5.57;;
20423;SDS011;10371;49.042;8.002;2023-03-12T01:59:30;5.87;;;5.00;;
20423;SDS011;10371;49.042;8.002;2023-03-12T02:00:34;7.33;;;5.20;;
20423;SDS011;10371;49.042;8.002;2023-03-12T02:01:34;4.00;;;3.40;;
20423;SDS011;10371;49.042;8.002;2023-03-12T02:02:36;5.33;;;3.70;;
20423;SDS011;10371;49.042;8.002;2023-03-12T02:03:37;3.90;;;3.20;;
20423;SDS011;10371;49.042;8.002;2023-03-12T02:04:38;4.03;;;3.13;;
20423;SDS011;10371;49.042;8.002;2023-03-12T02:07:13;4.90;;;3.80;;
20423;SDS011;10371;49.042;8.002;2023-03-12T02:08:15;5.10;;;4.43;;
20423;SDS011;10371;49.042;8.002;2023-03-12T02:09:16;4.70;;;3.53;;
20423;SDS011;10371;49.042;8.002;2023-03-12T02:10:19;5.30;;;3.93;;
20423;SDS011;10371;49.042;8.002;2023-03-12T02:11:20;3.77;;;3.37;;
20423;SDS011;10371;49.042;8.002;2023-03-12T02:12:21;4.40;;;3.33;;
20423;SDS011;10371;49.042;8.002;2023-03-12T02:13:21;3.73;;;3.00;;
20423;SDS011;10371;49.042;8.002;2023-03-12T02:14:21;3.20;;;2.90;;
20423;SDS011;10371;49.042;8.002;2023-03-12T02:15:22;5.73;;;3.07;;
20423;SDS011;10371;49.042;8.002;2023-03-12T02:16:23;3.13;;;2.60;;
20423;SDS011;10371;49.042;8.002;2023-03-12T02:17:23;3.77;;;2.53;;
20423;SDS011;10371;49.042;8.002;2023-03-12T02:18:24;3.20;;;2.40;;
20423;SDS011;10371;49.042;8.002;2023-03-12T02:19:26;3.17;;;2.23;;
20423;SDS011;10371;49.042;8.002;2023-03-12T02:20:34;5.20;;;2.80;;
20423;SDS011;10371;49.042;8.002;2023-03-12T02:21:35;4.93;;;3.77;;
20423;SDS011;10371;49.042;8.002;2023-03-12T02:22:38;4.33;;;3.37;;
20423;SDS011;10371;49.042;8.002;2023-03-12T02:23:43;3.67;;;2.90;;
20423;SDS011;10371;49.042;8.002;2023-03-12T02:24:56;4.20;;;3.03;;
20423;SDS011;10371;49.042;8.002;2023-03-12T02:26:03;6.13;;;2.87;;
20423;SDS011;10371;49.042;8.002;2023-03-12T02:27:04;4.13;;;2.90;;
20423;SDS011;10371;49.042;8.002;2023-03-12T02:28:08;3.87;;;2.60;;
20423;SDS011;10371;49.042;8.002;2023-03-12T02:29:11;5.07;;;2.80;;
20423;SDS011;10371;49.042;8.002;2023-03-12T02:30:11;4.13;;;2.70;;
20423;SDS011;10371;49.042;8.002;2023-03-12T02:31:19;4.10;;;2.53;;
20423;SDS011;10371;49.042;8.002;2023-03-12T02:32:28;4.10;;;2.70;;
20423;SDS011;10371;49.042;8.002;2023-03-12T02:33:34;4.03;;;2.30;;
20423;SDS011;10371;49.042;8.002;2023-03-12T02:34:34;3.87;;;2.73;;
20423;SDS011;10371;49.042;8.002;2023-03-12T02:35:35;5.03;;;2.63;;
20423;SDS011;10371;49.042;8.002;2023-03-12T02:36:36;2.73;;;2.43;;
20423;SDS011;10371;49.042;8.002;2023-03-12T02:37:45;4.23;;;2.87;;
20423;SDS011;10371;49.042;8.002;2023-03-12T02:38:47;2.40;;;2.20;;
20423;SDS011;10371;49.042;8.002;2023-03-12T02:39:54;5.07;;;2.60;;
20423;SDS011;10371;49.042;8.002;2023-03-12T02:41:09;3.23;;;2.30;;
20423;SDS011;10371;49.042;8.002;2023-03-12T02:42:12;2.63;;;2.30;;
20423;SDS011;10371;49.042;8.002;2023-03-12T02:43:13;3.27;;;2.50;;
20423;SDS011;10371;49.042;8.002;2023-03-12T02:44:17;5.00;;;2.90;;
20423;SDS011;10371;49.042;8.002;2023-03-12T02:45:19;2.83;;;2.60;;
20423;SDS011;10371;49.042;8.002;2023-03-12T02:46:20;3.70;;;2.70;;
20423;SDS011;10371;49.042;8.002;2023-03-12T02:47:21;3.20;;;2.90;;
20423;SDS011;10371;49.042;8.002;2023-03-12T02:48:21;3.97;;;2.80;;
20423;SDS011;10371;49.042;8.002;2023-03-12T02:49:22;3.47;;;3.00;;
20423;SDS011;10371;49.042;8.002;2023-03-12T02:50:24;3.13;;;2.80;;
20423;SDS011;10371;49.042;8.002;2023-03-12T02:51:24;6.33;;;3.17;;
20423;SDS011;10371;49.042;8.002;2023-03-12T02:52:24;3.57;;;3.00;;
20423;SDS011;10371;49.042;8.002;2023-03-12T02:53:24;3.00;;;2.60;;
20423;SDS011;10371;49.042;8.002;2023-03-12T02:54:25;4.33;;;3.23;;
20423;SDS011;10371;49.042;8.002;2023-03-12T02:55:26;5.20;;;2.90;;
20423;SDS011;10371;49.042;8.002;2023-03-12T02:56:27;4.00;;;2.97;;
20423;SDS011;10371;49.042;8.002;2023-03-12T02:57:27;4.90;;;2.80;;
20423;SDS011;10371;49.042;8.002;2023-03-12T02:58:28;3.63;;;3.00;;
20423;SDS011;10371;49.042;8.002;2023-03-12T02:59:28;3.00;;;2.70;;
20423;SDS011;10371;49.042;8.002;2023-03-12T03:00:28;4.93;;;3.13;;
20423;SDS011;10371;49.042;8.002;2023-03-12T03:01:31;3.90;;;3.10;;
20423;SDS011;10371;49.042;8.002;2023-03-12T03:02:34;3.13;;;2.83;;
20423;SDS011;10371;49.042;8.002;2023-03-12T03:03:34;3.57;;;2.63;;
20423;SDS011;10371;49.042;8.002;2023-03-12T03:04:34;3.77;;;3.10;;
20423;SDS011;10371;49.042;8.002;2023-03-12T03:05:35;3.43;;;2.83;;
20423;SDS011;10371;49.042;8.002;2023-03-12T03:06:36;3.83;;;2.77;;
20423;SDS011;10371;49.042;8.002;2023-03-12T03:07:40;4.03;;;3.00;;
20423;SDS011;10371;49.042;8.002;2023-03-12T03:08:40;4.80;;;2.90;;
20423;SDS011;10371;49.042;8.002;2023-03-12T03:09:40;4.63;;;3.13;;
20423;SDS011;10371;49.042;8.002;2023-03-12T03:10:41;3.20;;;2.90;;
20423;SDS011;10371;49.042;8.002;2023-03-12T03:11:41;3.77;;;3.10;;
20423;SDS011;10371;49.042;8.002;2023-03-12T03:12:41;3.30;;;2.97;;
20423;SDS011;10371;49.042;8.002;2023-03-12T03:13:41;3.63;;;3.30;;
20423;SDS011;10371;49.042;8.002;2023-03-12T03:14:42;3.87;;;3.20;;
20423;SDS011;10371;49.042;8.002;2023-03-12T03:15:42;3.67;;;3.17;;
20423;SDS011;10371;49.042;8.002;2023-03-12T03:16:42;5.03;;;3.10;;
20423;SDS011;10371;49.042;8.002;2023-03-12T03:17:43;4.23;;;3.00;;
20423;SDS011;10371;49.042;8.002;2023-03-12T03:18:43;3.70;;;2.67;;
20423;SDS011;10371;49.042;8.002;2023-03-12T03:19:43;3.27;;;2.90;;
20423;SDS011;10371;49.042;8.002;2023-03-12T03:20:43;3.90;;;3.10;;
20423;SDS011;10371;49.042;8.002;2023-03-12T03:21:44;3.70;;;2.80;;
20423;SDS011;10371;49.042;8.002;2023-03-12T03:22:44;4.47;;;2.90;;
20423;SDS011;10371;49.042;8.002;2023-03-12T03:23:45;3.30;;;2.70;;
20423;SDS011;10371;49.042;8.002;2023-03-12T03:24:47;3.47;;;2.37;;
20423;SDS011;10371;49.042;8.002;2023-03-12T03:25:47;4.63;;;2.93;;
20423;SDS011;10371;49.042;8.002;2023-03-12T03:26:48;2.83;;;2.50;;
20423;SDS011;10371;49.042;8.002;2023-03-12T03:27:48;5.00;;;2.90;;
20423;SDS011;10371;49.042;8.002;2023-03-12T03:28:49;3.53;;;2.80;;
20423;SDS011;10371;49.042;8.002;2023-03-12T03:29:50;2.30;;;2.10;;
20423;SDS011;10371;49.042;8.002;2023-03-12T03:30:51;3.13;;;2.60;;
20423;SDS011;10371;49.042;8.002;2023-03-12T03:31:53;3.70;;;3.07;;
20423;SDS011;10371;49.042;8.002;2023-03-12T03:32:53;4.57;;;3.80;;
20423;SDS011;10371;49.042;8.002;2023-03-12T03:33:53;4.70;;;3.70;;
20423;SDS011;10371;49.042;8.002;2023-03-12T03:34:54;5.53;;;4.17;;
20423;SDS011;10371;49.042;8.002;2023-03-12T03:35:54;5.43;;;4.17;;
20423;SDS011;10371;49.042;8.002;2023-03-12T03:36:55;4.80;;;3.90;;
20423;SDS011;10371;49.042;8.002;2023-03-12T03:37:55;4.47;;;3.60;;
20423;SDS011;10371;49.042;8.002;2023-03-12T03:38:55;5.20;;;3.77;;
20423;SDS011;10371;49.042;8.002;2023-03-12T03:39:56;4.17;;;3.77;;
20423;SDS011;10371;49.042;8.002;2023-03-12T03:40:56;4.90;;;3.80;;
20423;SDS011;10371;49.042;8.002;2023-03-12T03:41:57;5.60;;;4.03;;
20423;SDS011;10371;49.042;8.002;2023-03-12T03:42:57;5.07;;;4.00;;
20423;SDS011;10371;49.042;8.002;2023-03-12T03:43:57;6.77;;;4.47;;
20423;SDS011;10371;49.042;8.002;2023-03-12T03:44:58;6.90;;;4.03;;
20423;SDS011;10371;49.042;8.002;2023-03-12T03:45:59;6.87;;;4.33;;
20423;SDS011;10371;49.042;8.002;2023-03-12T03:47:01;7.50;;;4.83;;
20423;SDS011;10371;49.042;8.002;2023-03-12T03:48:01;7.50;;;4.67;;
20423;SDS011;10371;49.042;8.002;2023-03-12T03:49:02;6.67;;;4.80;;
20423;SDS011;10371;49.042;8.002;2023-03-12T03:50:03;6.23;;;4.40;;
20423;SDS011;10371;49.042;8.002;2023-03-12T03:51:05;5.07;;;4.57;;
20423;SDS011;10371;49.042;8.002;2023-03-12T03:52:06;8.37;;;4.90;;
20423;SDS011;10371;49.042;8.002;2023-03-12T03:53:07;4.87;;;4.37;;
20423;SDS011;10371;49.042;8.002;2023-03-12T03:54:08;6.17;;;4.53;;
20423;SDS011;10371;49.042;8.002;2023-03-12T03:55:09;5.83;;;4.20;;
20423;SDS011;10371;49.042;8.002;2023-03-12T03:56:11;5.43;;;4.03;;
20423;SDS011;10371;49.042;8.002;2023-03-12T03:57:13;6.53;;;4.27;;
20423;SDS011;10371;49.042;8.002;2023-03-12T03:58:13;5.80;;;3.90;;
20423;SDS011;10371;49.042;8.002;2023-03-12T03:59:14;4.87;;;3.70;;
20423;SDS011;10371;49.042;8.002;2023-03-12T04:00:14;5.83;;;3.57;;
20423;SDS011;10371;49.042;8.002;2023-03-12T04:01:16;5.07;;;3.70;;
20423;SDS011;10371;49.042;8.002;2023-03-12T04:02:17;4.27;;;3.20;;
20423;SDS011;10371;49.042;8.002;2023-03-12T04:03:17;3.83;;;2.70;;
20423;SDS011;10371;49.042;8.002;2023-03-12T04:04:18;2.97;;;2.60;;
20423;SDS011;10371;49.042;8.002;2023-03-12T04:05:18;4.10;;;3.00;;
20423;SDS011;10371;49.042;8.002;2023-03-12T04:06:19;4.00;;;2.67;;
20423;SDS011;10371;49.042;8.002;2023-03-12T04:07:20;3.10;;;2.80;;
20423;SDS011;10371;49.042;8.002;2023-03-12T04:08:20;3.17;;;2.60;;
20423;SDS011;10371;49.042;8.002;2023-03-12T04:09:20;3.07;;;2.40;;
20423;SDS011;10371;49.042;8.002;2023-03-12T04:10:21;3.47;;;2.30;;
20423;SDS011;10371;49.042;8.002;2023-03-12T04:11:23;3.37;;;2.40;;
20423;SDS011;10371;49.042;8.002;2023-03-12T04:12:23;3.90;;;2.70;;
20423;SDS011;10371;49.042;8.002;2023-03-12T04:13:25;3.47;;;2.53;;
20423;SDS011;10371;49.042;8.002;2023-03-12T04:14:25;2.70;;;2.50;;
20423;SDS011;10371;49.042;8.002;2023-03-12T04:15:25;4.23;;;2.77;;
20423;SDS011;10371;49.042;8.002;2023-03-12T04:16:26;3.47;;;2.30;;
20423;SDS011;10371;49.042;8.002;2023-03-12T04:17:26;3.93;;;2.53;;
20423;SDS011;10371;49.042;8.002;2023-03-12T04:18:27;2.47;;;2.23;;
20423;SDS011;10371;49.042;8.002;2023-03-12T04:19:27;3.83;;;2.83;;
20423;SDS011;10371;49.042;8.002;2023-03-12T04:20:27;2.63;;;2.43;;
20423;SDS011;10371;49.042;8.002;2023-03-12T04:21:28;3.17;;;2.53;;
20423;SDS011;10371;49.042;8.002;2023-03-12T04:22:28;3.63;;;2.50;;
20423;SDS011;10371;49.042;8.002;2023-03-12T04:23:28;3.90;;;2.40;;
20423;SDS011;10371;49.042;8.002;2023-03-12T04:24:29;2.80;;;2.60;;
20423;SDS011;10371;49.042;8.002;2023-03-12T04:25:29;2.70;;;2.50;;
20423;SDS011;10371;49.042;8.002;2023-03-12T04:26:29;4.33;;;2.80;;
20423;SDS011;10371;49.042;8.002;2023-03-12T04:27:30;3.80;;;2.93;;
20423;SDS011;10371;49.042;8.002;2023-03-12T04:28:30;4.33;;;2.60;;
20423;SDS011;10371;49.042;8.002;2023-03-12T04:29:30;4.60;;;2.90;;
20423;SDS011;10371;49.042;8.002;2023-03-12T04:30:31;3.73;;;2.93;;
20423;SDS011;10371;49.042;8.002;2023-03-12T04:31:31;4.23;;;2.87;;
20423;SDS011;10371;49.042;8.002;2023-03-12T04:32:32;3.37;;;2.50;;
20423;SDS011;10371;49.042;8.002;2023-03-12T04:33:35;3.60;;;2.60;;
20423;SDS011;10371;49.042;8.002;2023-03-12T04:34:36;3.87;;;2.57;;
20423;SDS011;10371;49.042;8.002;2023-03-12T04:35:36;3.43;;;2.70;;
20423;SDS011;10371;49.042;8.002;2023-03-12T04:36:37;4.60;;;2.80;;
20423;SDS011;10371;49.042;8.002;2023-03-12T04:37:37;2.93;;;2.53;;
20423;SDS011;10371;49.042;8.002;2023-03-12T04:38:37;3.67;;;2.67;;
20423;SDS011;10371;49.042;8.002;2023-03-12T04:39:38;3.80;;;2.60;;
20423;SDS011;10371;49.042;8.002;2023-03-12T04:40:39;4.30;;;2.30;;
20423;SDS011;10371;49.042;8.002;2023-03-12T04:41:39;4.20;;;2.70;;
20423;SDS011;10371;49.042;8.002;2023-03-12T04:42:40;3.00;;;2.53;;
20423;SDS011;10371;49.042;8.002;2023-03-12T04:43:40;3.83;;;2.60;;
20423;SDS011;10371;49.042;8.002;2023-03-12T04:44:40;3.93;;;2.40;;
20423;SDS011;10371;49.042;8.002;2023-03-12T04:45:41;3.73;;;2.70;;
20423;SDS011;10371;49.042;8.002;2023-03-12T04:46:41;3.30;;;2.97;;
20423;SDS011;10371;49.042;8.002;2023-03-12T04:47:42;3.40;;;3.10;;
20423;SDS011;10371;49.042;8.002;2023-03-12T04:48:42;4.23;;;3.13;;
20423;SDS011;10371;49.042;8.002;2023-03-12T04:49:43;2.93;;;2.73;;
20423;SDS011;10371;49.042;8.002;2023-03-12T04:50:43;4.17;;;3.20;;
20423;SDS011;10371;49.042;8.002;2023-03-12T04:51:43;4.17;;;3.03;;
20423;SDS011;10371;49.042;8.002;2023-03-12T04:52:43;3.40;;;3.10;;
20423;SDS011;10371;49.042;8.002;2023-03-12T04:53:44;3.40;;;3.00;;
20423;SDS011;10371;49.042;8.002;2023-03-12T04:54:44;4.53;;;3.50;;
20423;SDS011;10371;49.042;8.002;2023-03-12T04:55:44;3.50;;;3.20;;
20423;SDS011;10371;49.042;8.002;2023-03-12T04:56:45;3.83;;;2.97;;
20423;SDS011;10371;49.042;8.002;2023-03-12T04:57:46;6.57;;;3.70;;
20423;SDS011;10371;49.042;8.002;2023-03-12T04:58:46;5.07;;;3.60;;
20423;SDS011;10371;49.042;8.002;2023-03-12T04:59:47;4.33;;;3.50;;
20423;SDS011;10371;49.042;8.002;2023-03-12T05:00:48;4.27;;;3.33;;
20423;SDS011;10371;49.042;8.002;2023-03-12T05:01:48;5.03;;;3.70;;
20423;SDS011;10371;49.042;8.002;2023-03-12T05:02:50;4.53;;;3.97;;
20423;SDS011;10371;49.042;8.002;2023-03-12T05:03:50;4.73;;;3.80;;
20423;SDS011;10371;49.042;8.002;2023-03-12T05:04:51;5.73;;;3.87;;
20423;SDS011;10371;49.042;8.002;2023-03-12T05:05:54;4.80;;;4.30;;
20423;SDS011;10371;49.042;8.002;2023-03-12T05:06:55;4.37;;;3.97;;
20423;SDS011;10371;49.042;8.002;2023-03-12T05:07:55;5.40;;;4.27;;
20423;SDS011;10371;49.042;8.002;2023-03-12T05:08:55;5.33;;;4.40;;
20423;SDS011;10371;49.042;8.002;2023-03-12T05:09:56;7.73;;;4.90;;
20423;SDS011;10371;49.042;8.002;2023-03-12T05:10:56;5.47;;;4.60;;
20423;SDS011;10371;49.042;8.002;2023-03-12T05:11:56;7.20;;;4.77;;
20423;SDS011;10371;49.042;8.002;2023-03-12T05:12:56;6.50;;;5.17;;
20423;SDS011;10371;49.042;8.002;2023-03-12T05:13:57;7.80;;;5.23;;
20423;SDS011;10371;49.042;8.002;2023-03-12T05:14:57;6.17;;;5.37;;
20423;SDS011;10371;49.042;8.002;2023-03-12T05:15:57;7.00;;;5.20;;
20423;SDS011;10371;49.042;8.002;2023-03-12T05:16:58;6.60;;;5.30;;
20423;SDS011;10371;49.042;8.002;2023-03-12T05:17:58;6.07;;;5.03;;
20423;SDS011;10371;49.042;8.002;2023-03-12T05:18:58;6.30;;;5.33;;
20423;SDS011;10371;49.042;8.002;2023-03-12T05:19:59;7.63;;;5.30;;
20423;SDS011;10371;49.042;8.002;2023-03-12T05:21:00;7.57;;;4.80;;
20423;SDS011;10371;49.042;8.002;2023-03-12T05:22:02;5.53;;;4.30;;
20423;SDS011;10371;49.042;8.002;2023-03-12T05:23:02;5.00;;;4.10;;
20423;SDS011;10371;49.042;8.002;2023-03-12T05:24:02;4.97;;;4.37;;
20423;SDS011;10371;49.042;8.002;2023-03-12T05:25:03;7.17;;;4.20;;
20423;SDS011;10371;49.042;8.002;2023-03-12T05:26:05;6.00;;;3.63;;
20423;SDS011;10371;49.042;8.002;2023-03-12T05:27:05;3.90;;;3.30;;
20423;SDS011;10371;49.042;8.002;2023-03-12T05:28:07;4.87;;;3.40;;
20423;SDS011;10371;49.042;8.002;2023-03-12T05:29:07;5.00;;;3.53;;
20423;SDS011;10371;49.042;8.002;2023-03-12T05:30:08;3.90;;;3.50;;
20423;SDS011;10371;49.042;8.002;2023-03-12T05:31:09;5.63;;;3.87;;
20423;SDS011;10371;49.042;8.002;2023-03-12T05:32:10;6.10;;;3.70;;
20423;SDS011;10371;49.042;8.002;2023-03-12T05:33:10;5.20;;;4.00;;
20423;SDS011;10371;49.042;8.002;2023-03-12T05:34:11;6.03;;;4.27;;
20423;SDS011;10371;49.042;8.002;2023-03-12T05:35:12;5.63;;;4.40;;
20423;SDS011;10371;49.042;8.002;2023-03-12T05:36:13;4.00;;;3.60;;
20423;SDS011;10371;49.042;8.002;2023-03-12T05:37:14;6.67;;;4.10;;
20423;SDS011;10371;49.042;8.002;2023-03-12T05:38:14;5.90;;;4.97;;
20423;SDS011;10371;49.042;8.002;2023-03-12T05:39:14;5.17;;;4.63;;
20423;SDS011;10371;49.042;8.002;2023-03-12T05:40:15;7.20;;;5.60;;
20423;SDS011;10371;49.042;8.002;2023-03-12T05:42:23;6.70;;;6.00;;
20423;SDS011;10371;49.042;8.002;2023-03-12T05:43:24;5.60;;;5.00;;
20423;SDS011;10371;49.042;8.002;2023-03-12T05:44:26;6.03;;;5.43;;
20423;SDS011;10371;49.042;8.002;2023-03-12T05:45:26;5.97;;;5.33;;
20423;SDS011;10371;49.042;8.002;2023-03-12T05:46:27;6.13;;;5.50;;
20423;SDS011;10371;49.042;8.002;2023-03-12T05:47:28;6.40;;;5.60;;
20423;SDS011;10371;49.042;8.002;2023-03-12T05:48:28;5.93;;;5.33;;
20423;SDS011;10371;49.042;8.002;2023-03-12T05:49:29;6.03;;;4.87;;
20423;SDS011;10371;49.042;8.002;2023-03-12T05:50:30;6.93;;;5.00;;
20423;SDS011;10371;49.042;8.002;2023-03-12T05:51:30;5.70;;;5.17;;
20423;SDS011;10371;49.042;8.002;2023-03-12T05:52:30;5.17;;;4.43;;
20423;SDS011;10371;49.042;8.002;2023-03-12T05:53:30;7.87;;;5.27;;
20423;SDS011;10371;49.042;8.002;2023-03-12T05:54:31;6.40;;;4.50;;
20423;SDS011;10371;49.042;8.002;2023-03-12T05:55:35;5.23;;;4.70;;
20423;SDS011;10371;49.042;8.002;2023-03-12T05:56:36;5.53;;;4.67;;
20423;SDS011;10371;49.042;8.002;2023-03-12T05:57:37;6.60;;;4.80;;
20423;SDS011;10371;49.042;8.002;2023-03-12T05:58:37;7.07;;;5.07;;
20423;SDS011;10371;49.042;8.002;2023-03-12T05:59:38;5.80;;;5.00;;
20423;SDS011;10371;49.042;8.002;2023-03-12T06:00:39;4.83;;;4.43;;
20423;SDS011;10371;49.042;8.002;2023-03-12T06:01:40;6.83;;;5.83;;
20423;SDS011;10371;49.042;8.002;2023-03-12T06:02:41;7.07;;;5.73;;
20423;SDS011;10371;49.042;8.002;2023-03-12T06:03:41;10.43;;;6.27;;
20423;SDS011;10371;49.042;8.002;2023-03-12T06:04:42;6.67;;;5.60;;
20423;SDS011;10371;49.042;8.002;2023-03-12T06:05:42;5.50;;;4.90;;
20423;SDS011;10371;49.042;8.002;2023-03-12T06:06:43;6.63;;;5.20;;
20423;SDS011;10371;49.042;8.002;2023-03-12T06:07:44;8.73;;;6.10;;
20423;SDS011;10371;49.042;8.002;2023-03-12T06:08:44;8.80;;;6.13;;
20423;SDS011;10371;49.042;8.002;2023-03-12T06:09:45;6.90;;;5.60;;
20423;SDS011;10371;49.042;8.002;2023-03-12T06:10:45;6.13;;;5.40;;
20423;SDS011;10371;49.042;8.002;2023-03-12T06:11:45;6.60;;;4.87;;
20423;SDS011;10371;49.042;8.002;2023-03-12T06:12:45;6.10;;;5.00;;
20423;SDS011;10371;49.042;8.002;2023-03-12T06:13:46;6.37;;;5.00;;
20423;SDS011;10371;49.042;8.002;2023-03-12T06:14:46;5.27;;;4.50;;